createdAt,value
2022-07-29T00:02:48.721Z,96.30
2022-07-29T00:05:51.135Z,96.40
2022-07-29T00:08:53.768Z,96.80
2022-07-29T00:11:59.714Z,96.80
2022-07-29T00:15:02.283Z,96.70
2022-07-29T00:18:06.141Z,96.90
2022-07-29T00:21:09.365Z,96.90
2022-07-29T00:24:11.602Z,97.00
2022-07-29T00:27:14.086Z,97.00
2022-07-29T00:30:16.802Z,97.10
2022-07-29T00:33:19.317Z,97.30
2022-07-29T00:36:24.828Z,97.10
2022-07-29T00:39:27.535Z,97.30
2022-07-29T00:42:30.056Z,97.20
2022-07-29T00:45:33.555Z,97.40
2022-07-29T00:48:36.061Z,97.30
2022-07-29T00:51:39.084Z,97.40
2022-07-29T00:54:44.365Z,97.30
2022-07-29T00:57:47.747Z,97.30
2022-07-29T01:00:50.323Z,97.40
2022-07-29T01:03:52.925Z,97.40
2022-07-29T01:06:55.759Z,97.50
2022-07-29T01:09:59.382Z,97.50
2022-07-29T01:13:02.971Z,97.30
2022-07-29T01:16:33.423Z,97.40
2022-07-29T01:19:59.197Z,97.50
2022-07-29T01:23:42.818Z,97.70
2022-07-29T01:27:10.832Z,97.60
2022-07-29T01:30:18.343Z,98.20
2022-07-29T01:33:43.380Z,98.00
2022-07-29T01:36:48.227Z,97.70
2022-07-29T01:39:53.486Z,97.70
2022-07-29T01:43:02.099Z,97.70
2022-07-29T01:46:10.658Z,97.90
2022-07-29T01:49:21.064Z,97.80
2022-07-29T01:52:32.127Z,97.50
2022-07-29T01:55:39.668Z,97.30
2022-07-29T01:58:44.551Z,97.40
2022-07-29T02:01:49.768Z,97.40
2022-07-29T02:04:58.421Z,97.20
2022-07-29T02:08:01.672Z,97.50
2022-07-29T02:11:05.482Z,97.10
2022-07-29T02:14:10.467Z,97.20
2022-07-29T02:17:14.715Z,97.30
2022-07-29T02:20:18.087Z,97.10
2022-07-29T02:23:23.250Z,97.10
2022-07-29T02:26:28.888Z,97.00
2022-07-29T02:29:32.643Z,97.10
2022-07-29T02:32:37.950Z,97.30
2022-07-29T02:35:43.940Z,97.20
2022-07-29T02:38:53.292Z,97.30
2022-07-29T02:42:23.338Z,97.40
2022-07-29T02:45:26.110Z,97.80
2022-07-29T02:48:40.565Z,97.80
2022-07-29T02:51:57.899Z,97.90
2022-07-29T02:55:08.632Z,98.00
2022-07-29T02:58:35.436Z,97.90
2022-07-29T03:01:43.081Z,98.10
2022-07-29T03:04:47.085Z,97.80
2022-07-29T03:07:55.903Z,97.70
2022-07-29T03:11:00.107Z,97.70
2022-07-29T03:14:03.396Z,97.70
2022-07-29T03:17:06.698Z,98.10
2022-07-29T03:20:10.335Z,97.90
2022-07-29T03:23:15.500Z,97.70
2022-07-29T03:26:17.664Z,97.80
2022-07-29T03:29:20.006Z,97.70
2022-07-29T03:32:24.081Z,98.00
2022-07-29T03:35:27.862Z,98.00
2022-07-29T03:38:34.726Z,97.90
2022-07-29T03:41:40.103Z,97.70
2022-07-29T03:44:44.422Z,97.70
2022-07-29T03:47:55.816Z,97.80
2022-07-29T03:51:00.845Z,97.80
2022-07-29T03:54:09.525Z,97.80
2022-07-29T03:57:13.466Z,97.80
2022-07-29T04:00:18.858Z,97.80
2022-07-29T04:03:21.843Z,97.80
2022-07-29T04:06:24.470Z,97.80
2022-07-29T04:09:27.322Z,97.70
2022-07-29T04:12:29.795Z,97.60
2022-07-29T04:15:39.347Z,97.70
2022-07-29T04:18:45.422Z,97.60
2022-07-29T04:21:48.011Z,97.60
2022-07-29T04:24:50.375Z,97.70
2022-07-29T04:28:01.338Z,97.70
2022-07-29T04:31:03.689Z,97.80
2022-07-29T04:34:06.193Z,98.10
2022-07-29T04:37:08.424Z,98.00
2022-07-29T04:40:11.249Z,98.10
2022-07-29T04:43:14.289Z,97.90
2022-07-29T04:46:17.753Z,98.00
2022-07-29T04:49:21.034Z,98.00
2022-07-29T04:52:23.967Z,98.20
2022-07-29T04:55:26.649Z,97.90
2022-07-29T04:58:28.814Z,98.20
2022-07-29T05:01:31.341Z,98.20
2022-07-29T05:04:33.626Z,98.30
2022-07-29T05:07:36.172Z,98.20
2022-07-29T05:10:39.266Z,98.30
2022-07-29T05:13:45.224Z,98.40
2022-07-29T05:16:49.858Z,98.40
2022-07-29T05:19:52.574Z,98.50
2022-07-29T05:22:56.113Z,98.60
2022-07-29T05:25:58.697Z,98.60
2022-07-29T05:29:00.931Z,98.60
2022-07-29T05:32:04.020Z,98.60
2022-07-29T05:35:06.727Z,98.80
2022-07-29T05:38:09.112Z,98.80
2022-07-29T05:41:11.632Z,98.90
2022-07-29T05:44:15.149Z,98.80
2022-07-29T05:47:17.730Z,98.90
2022-07-29T05:50:20.652Z,99.00
2022-07-29T05:53:23.013Z,98.80
2022-07-29T05:56:25.586Z,98.70
2022-07-29T05:59:30.443Z,98.80
2022-07-29T06:02:33.135Z,98.70
2022-07-29T06:05:35.291Z,98.60
2022-07-29T06:08:39.126Z,98.30
2022-07-29T06:11:41.471Z,97.90
2022-07-29T06:14:43.920Z,97.40
2022-07-29T06:18:00.660Z,96.90
2022-07-29T06:21:15.171Z,96.40
2022-07-29T06:24:18.028Z,96.10
2022-07-29T06:27:20.547Z,95.40
2022-07-29T06:30:23.167Z,95.20
2022-07-29T06:33:25.568Z,94.30
2022-07-29T06:36:27.707Z,93.80
2022-07-29T06:39:30.407Z,93.00
2022-07-29T06:42:32.634Z,92.70
2022-07-29T06:45:37.853Z,92.40
2022-07-29T06:48:41.843Z,92.40
2022-07-29T06:51:44.249Z,91.60
2022-07-29T06:54:49.221Z,90.90
2022-07-29T06:57:52.513Z,90.60
2022-07-29T07:00:55.931Z,87.70
2022-07-29T07:03:59.245Z,88.00
2022-07-29T07:07:01.716Z,86.90
2022-07-29T07:10:04.462Z,86.10
2022-07-29T07:13:07.099Z,84.60
2022-07-29T07:16:09.804Z,82.90
2022-07-29T07:19:12.186Z,81.80
2022-07-29T07:22:16.540Z,80.30
2022-07-29T07:25:18.757Z,77.80
2022-07-29T07:28:24.941Z,76.50
2022-07-29T07:31:29.432Z,73.90
2022-07-29T07:34:32.668Z,73.90
2022-07-29T07:37:36.482Z,76.50
2022-07-29T07:40:38.829Z,73.60
2022-07-29T07:43:41.707Z,73.10
2022-07-29T07:46:46.012Z,72.10
2022-07-29T07:49:48.637Z,71.30
2022-07-29T07:52:53.132Z,71.50
2022-07-29T07:56:12.424Z,69.70
2022-07-29T07:59:15.186Z,69.30
2022-07-29T08:02:17.506Z,69.70
2022-07-29T08:05:20.065Z,68.60
2022-07-29T08:08:22.310Z,67.30
2022-07-29T08:11:24.527Z,67.10
2022-07-29T08:14:28.578Z,67.30
2022-07-29T08:17:31.009Z,66.50
2022-07-29T08:20:39.518Z,65.60
2022-07-29T08:23:51.514Z,63.90
2022-07-29T08:26:56.926Z,62.50
2022-07-29T08:29:59.186Z,62.00
2022-07-29T08:33:02.079Z,62.70
2022-07-29T08:36:04.692Z,61.50
2022-07-29T08:39:07.351Z,60.20
2022-07-29T08:42:10.704Z,60.60
2022-07-29T08:45:14.950Z,59.10
2022-07-29T08:48:22.455Z,58.30
2022-07-29T08:51:28.137Z,55.70
2022-07-29T08:54:30.667Z,54.60
2022-07-29T08:57:37.079Z,53.30
2022-07-29T09:00:47.323Z,52.30
2022-07-29T09:03:55.947Z,50.80
2022-07-29T09:07:03.806Z,49.60
2022-07-29T09:10:06.867Z,50.80
2022-07-29T09:13:09.496Z,49.70
2022-07-29T09:16:11.691Z,49.60
2022-07-29T09:19:27.629Z,47.90
2022-07-29T09:22:32.094Z,47.30
2022-07-29T09:25:39.679Z,48.20
2022-07-29T09:28:43.951Z,49.60
2022-07-29T09:31:52.367Z,48.70
2022-07-29T09:35:23.613Z,47.40
2022-07-29T09:38:26.308Z,47.90
2022-07-29T09:41:29.276Z,45.30
2022-07-29T09:44:51.465Z,47.00
2022-07-29T09:47:53.858Z,45.80
2022-07-29T09:50:56.295Z,43.60
2022-07-29T09:53:59.061Z,45.50
2022-07-29T09:57:01.421Z,45.60
2022-07-29T10:00:08.132Z,45.60
2022-07-29T10:03:10.436Z,47.20
2022-07-29T10:06:15.686Z,47.10
2022-07-29T10:09:17.978Z,48.40
2022-07-29T10:12:25.349Z,48.90
2022-07-29T10:15:33.137Z,46.40
2022-07-29T10:18:36.505Z,47.60
2022-07-29T10:21:40.930Z,46.70
2022-07-29T10:24:43.168Z,47.40
2022-07-29T10:27:47.056Z,48.00
2022-07-29T10:30:53.473Z,46.10
2022-07-29T10:34:16.332Z,46.50
2022-07-29T10:37:58.378Z,47.10
2022-07-29T10:41:32.266Z,48.10
2022-07-29T10:44:46.614Z,48.80
2022-07-29T10:48:08.162Z,48.70
2022-07-29T10:51:11.003Z,48.30
2022-07-29T10:54:14.913Z,47.50
2022-07-29T10:57:53.948Z,48.80
2022-07-29T11:00:54.368Z,50.00
2022-07-29T11:03:57.821Z,51.70
2022-07-29T11:07:05.982Z,51.00
2022-07-29T11:10:17.734Z,51.20
2022-07-29T11:13:44.322Z,51.70
2022-07-29T11:17:05.851Z,51.60
2022-07-29T11:20:40.791Z,53.30
2022-07-29T11:23:44.706Z,54.60
2022-07-29T11:27:13.170Z,53.30
2022-07-29T11:30:16.460Z,53.70
2022-07-29T11:33:54.863Z,56.00
2022-07-29T11:37:08.173Z,55.80
2022-07-29T11:40:13.434Z,57.80
2022-07-29T11:43:48.075Z,58.10
2022-07-29T11:46:54.284Z,60.80
2022-07-29T11:50:01.012Z,60.20
2022-07-29T11:53:13.250Z,61.60
2022-07-29T11:56:22.288Z,63.50
2022-07-29T11:59:33.613Z,65.20
2022-07-29T12:02:53.710Z,66.10
2022-07-29T12:05:56.283Z,66.30
2022-07-29T12:08:59.767Z,66.40
2022-07-29T12:12:05.349Z,66.70
2022-07-29T12:15:16.116Z,66.90
2022-07-29T12:18:24.084Z,67.30
2022-07-29T12:21:28.750Z,67.40
2022-07-29T12:25:02.214Z,68.40
2022-07-29T12:28:26.802Z,68.10
2022-07-29T12:31:42.106Z,68.40
2022-07-29T12:34:45.124Z,68.10
2022-07-29T12:37:49.268Z,67.80
2022-07-29T12:40:54.264Z,68.00
2022-07-29T12:43:59.349Z,68.00
2022-07-29T12:47:04.973Z,68.90
2022-07-29T12:50:22.060Z,69.20
2022-07-29T12:53:26.926Z,69.40
2022-07-29T12:56:42.329Z,68.80
2022-07-29T12:59:45.441Z,69.40
2022-07-29T13:02:57.615Z,69.80
2022-07-29T13:06:01.111Z,69.10
2022-07-29T13:09:08.579Z,69.40
2022-07-29T13:12:13.313Z,69.70
2022-07-29T13:15:17.230Z,69.60
2022-07-29T13:18:34.716Z,70.20
2022-07-29T13:21:38.208Z,70.60
2022-07-29T13:24:55.722Z,71.40
2022-07-29T13:27:58.134Z,70.80
2022-07-29T13:31:00.767Z,70.80
2022-07-29T13:34:03.272Z,69.90
2022-07-29T13:37:05.862Z,70.40
2022-07-29T13:40:09.933Z,71.40
2022-07-29T13:43:12.915Z,70.60
2022-07-29T13:46:15.163Z,70.90
2022-07-29T13:49:17.563Z,71.60
2022-07-29T13:52:21.367Z,71.10
2022-07-29T13:55:23.854Z,70.60
2022-07-29T13:58:26.324Z,70.10
2022-07-29T14:01:28.932Z,69.60
2022-07-29T14:04:31.322Z,70.20
2022-07-29T14:07:33.784Z,70.80
2022-07-29T14:10:36.109Z,70.70
2022-07-29T14:13:38.329Z,71.00
2022-07-29T14:16:43.724Z,71.00
2022-07-29T14:19:51.256Z,71.30
2022-07-29T14:22:53.377Z,72.10
2022-07-29T14:25:56.947Z,72.00
2022-07-29T14:29:02.145Z,72.00
2022-07-29T14:32:09.056Z,72.50
2022-07-29T14:35:11.770Z,72.60
2022-07-29T14:38:17.781Z,71.80
2022-07-29T14:41:20.227Z,72.30
2022-07-29T14:44:25.531Z,72.70
2022-07-29T14:47:27.733Z,72.80
2022-07-29T14:50:34.536Z,71.80
2022-07-29T14:53:37.124Z,71.90
2022-07-29T14:56:46.956Z,72.30
2022-07-29T14:59:50.798Z,72.50
2022-07-29T15:03:02.066Z,73.20
2022-07-29T15:06:05.301Z,72.20
2022-07-29T15:09:07.515Z,72.80
2022-07-29T15:12:11.617Z,73.10
2022-07-29T15:15:14.608Z,73.20
2022-07-29T15:18:25.368Z,73.30
2022-07-29T15:21:28.152Z,73.10
2022-07-29T15:24:30.297Z,72.50
2022-07-29T15:27:32.514Z,72.60
2022-07-29T15:30:37.025Z,72.90
2022-07-29T15:33:39.355Z,73.80
2022-07-29T15:36:51.946Z,73.00
2022-07-29T15:39:59.685Z,72.80
2022-07-29T15:43:06.936Z,73.30
2022-07-29T15:46:27.727Z,73.30
2022-07-29T15:49:47.828Z,73.10
2022-07-29T15:52:54.848Z,72.80
2022-07-29T15:55:57.408Z,73.20
2022-07-29T15:59:04.410Z,73.80
2022-07-29T16:02:07.827Z,73.60
2022-07-29T16:05:10.437Z,74.50
2022-07-29T16:08:12.861Z,73.80
2022-07-29T16:11:15.180Z,73.60
2022-07-29T16:14:18.600Z,74.30
2022-07-29T16:17:21.120Z,73.20
2022-07-29T16:20:24.421Z,73.80
2022-07-29T16:23:26.623Z,74.30
2022-07-29T16:26:28.799Z,74.80
2022-07-29T16:29:31.992Z,75.00
2022-07-29T16:32:34.117Z,75.40
2022-07-29T16:35:40.141Z,75.00
2022-07-29T16:38:47.201Z,74.70
2022-07-29T16:41:50.180Z,74.80
2022-07-29T16:44:52.490Z,74.80
2022-07-29T16:48:00.044Z,74.70
2022-07-29T16:51:02.632Z,75.30
2022-07-29T16:54:05.299Z,75.70
2022-07-29T16:57:07.700Z,75.50
2022-07-29T17:00:11.503Z,75.70
2022-07-29T17:03:13.945Z,76.30
2022-07-29T17:06:16.389Z,76.50
2022-07-29T17:09:18.822Z,76.90
2022-07-29T17:12:21.520Z,76.80
2022-07-29T17:15:23.668Z,77.00
2022-07-29T17:18:25.966Z,77.00
2022-07-29T17:21:29.006Z,77.50
2022-07-29T17:24:31.286Z,77.60
2022-07-29T17:27:35.198Z,77.50
2022-07-29T17:30:38.601Z,77.50
2022-07-29T17:33:40.765Z,77.80
2022-07-29T17:36:44.014Z,78.10
2022-07-29T17:39:46.774Z,77.90
2022-07-29T17:42:48.949Z,78.20
2022-07-29T17:45:51.393Z,78.50
2022-07-29T17:48:57.907Z,78.30
2022-07-29T17:52:01.044Z,78.50
2022-07-29T17:55:03.858Z,78.90
2022-07-29T17:58:09.062Z,79.00
2022-07-29T18:01:11.366Z,79.60
2022-07-29T18:04:15.495Z,79.60
2022-07-29T18:07:18.693Z,80.00
2022-07-29T18:10:20.993Z,79.90
2022-07-29T18:13:23.344Z,79.80
2022-07-29T18:16:25.819Z,80.20
2022-07-29T18:19:29.777Z,80.20
2022-07-29T18:22:31.965Z,80.40
2022-07-29T18:25:37.644Z,80.90
2022-07-29T18:28:42.863Z,81.00
2022-07-29T18:31:46.324Z,81.20
2022-07-29T18:34:49.510Z,81.50
2022-07-29T18:38:00.203Z,81.80
2022-07-29T18:41:05.955Z,81.80
2022-07-29T18:44:09.824Z,82.30
2022-07-29T18:47:12.656Z,82.60
2022-07-29T18:50:16.188Z,83.20
2022-07-29T18:53:18.574Z,83.30
2022-07-29T18:56:21.157Z,83.50
2022-07-29T18:59:23.886Z,84.00
2022-07-29T19:02:26.352Z,84.30
2022-07-29T19:05:28.995Z,85.30
2022-07-29T19:08:31.106Z,85.70
2022-07-29T19:11:33.297Z,86.60
2022-07-29T19:14:35.589Z,88.00
2022-07-29T19:17:38.919Z,88.50
2022-07-29T19:20:42.226Z,88.00
2022-07-29T19:24:00.721Z,88.30
2022-07-29T19:27:07.857Z,89.00
2022-07-29T19:30:11.120Z,89.30
2022-07-29T19:33:14.877Z,89.50
2022-07-29T19:36:17.287Z,90.00
2022-07-29T19:39:19.622Z,90.00
2022-07-29T19:42:37.443Z,90.50
2022-07-29T19:45:39.730Z,91.10
2022-07-29T19:48:43.486Z,91.00
2022-07-29T19:51:45.905Z,91.60
2022-07-29T19:54:48.518Z,91.70
2022-07-29T19:57:52.849Z,91.70
2022-07-29T20:00:55.045Z,92.00
2022-07-29T20:03:57.260Z,92.20
2022-07-29T20:07:01.866Z,92.60
2022-07-29T20:10:06.147Z,92.90
2022-07-29T20:13:08.338Z,93.00
2022-07-29T20:16:11.669Z,92.90
2022-07-29T20:19:13.939Z,93.10
2022-07-29T20:22:20.907Z,93.10
2022-07-29T20:25:24.404Z,93.10
2022-07-29T20:28:26.573Z,93.50
2022-07-29T20:31:30.708Z,93.60
2022-07-29T20:34:33.143Z,93.90
2022-07-29T20:37:52.355Z,94.10
2022-07-29T20:40:58.978Z,94.30
2022-07-29T20:44:02.523Z,94.30
2022-07-29T20:47:06.617Z,94.60
2022-07-29T20:50:10.317Z,94.80
2022-07-29T20:53:12.625Z,95.00
2022-07-29T20:56:14.806Z,95.20
2022-07-29T20:59:18.568Z,95.20
2022-07-29T21:02:20.814Z,95.10
2022-07-29T21:05:23.336Z,95.30
2022-07-29T21:08:26.299Z,95.20
2022-07-29T21:11:43.804Z,95.10
2022-07-29T21:14:51.938Z,95.60
2022-07-29T21:18:06.231Z,95.80
2022-07-29T21:21:08.782Z,95.80
2022-07-29T21:24:12.647Z,95.80
2022-07-29T21:27:34.141Z,95.90
2022-07-29T21:30:36.758Z,96.10
2022-07-29T21:33:41.152Z,96.10
2022-07-29T21:36:48.367Z,96.30
2022-07-29T21:39:51.229Z,96.20
2022-07-29T21:42:55.479Z,96.40
2022-07-29T21:45:59.581Z,96.50
2022-07-29T21:49:02.055Z,96.10
2022-07-29T21:52:05.114Z,96.30
2022-07-29T21:55:07.879Z,96.70
2022-07-29T21:58:15.502Z,96.80
2022-07-29T22:01:17.689Z,96.70
2022-07-29T22:04:20.034Z,97.00
2022-07-29T22:07:24.018Z,97.00
2022-07-29T22:10:27.989Z,97.10
2022-07-29T22:13:30.379Z,97.20
2022-07-29T22:16:32.561Z,97.20
2022-07-29T22:19:34.780Z,97.30
2022-07-29T22:22:36.949Z,97.20
2022-07-29T22:25:39.086Z,97.20
2022-07-29T22:28:41.292Z,97.20
2022-07-29T22:31:44.099Z,97.20
2022-07-29T22:34:46.722Z,97.50
2022-07-29T22:37:49.107Z,97.30
2022-07-29T22:40:52.499Z,97.20
2022-07-29T22:43:55.299Z,97.60
2022-07-29T22:46:58.501Z,97.60
2022-07-29T22:50:01.416Z,97.40
2022-07-29T22:53:04.690Z,97.50
2022-07-29T22:56:07.520Z,97.60
2022-07-29T22:59:09.858Z,97.40
2022-07-29T23:02:12.545Z,97.50
2022-07-29T23:05:16.128Z,97.50
2022-07-29T23:08:19.799Z,97.80
2022-07-29T23:11:22.227Z,97.80
2022-07-29T23:14:26.170Z,97.90
2022-07-29T23:17:28.772Z,98.00
2022-07-29T23:20:30.978Z,97.90
2022-07-29T23:23:33.265Z,98.10
2022-07-29T23:26:37.258Z,98.60
2022-07-29T23:29:39.972Z,98.40
2022-07-29T23:32:42.276Z,98.10
2022-07-29T23:35:45.377Z,98.20
2022-07-29T23:39:19.964Z,98.00
2022-07-29T23:42:25.170Z,97.80
2022-07-29T23:45:42.471Z,97.60
2022-07-29T23:48:47.401Z,98.10
2022-07-29T23:51:49.652Z,97.80
2022-07-29T23:54:51.904Z,97.90
2022-07-29T23:57:54.368Z,98.00
